sensor_id;sensor_type;location;lat;lon;timestamp;pressure;altitude;pressure_sealevel;temperature;humidity
59825;BME280;45703;50.898;6.054;2023-02-12T00:01:33;102401.19;;;7.06;100.00
59825;BME280;45703;50.898;6.054;2023-02-12T00:03:59;102393.41;;;7.04;100.00
59825;BME280;45703;50.898;6.054;2023-02-12T00:06:25;102398.72;;;7.04;100.00
59825;BME280;45703;50.898;6.054;2023-02-12T00:08:51;102392.72;;;7.02;100.00
59825;BME280;45703;50.898;6.054;2023-02-12T00:11:18;102391.84;;;7.02;100.00
59825;BME280;45703;50.898;6.054;2023-02-12T00:13:44;102393.69;;;7.01;100.00
59825;BME280;45703;50.898;6.054;2023-02-12T00:16:10;102395.50;;;7.01;100.00
59825;BME280;45703;50.898;6.054;2023-02-12T00:18:37;102393.81;;;7.00;100.00
59825;BME280;45703;50.898;6.054;2023-02-12T00:21:02;102398.31;;;6.99;100.00
59825;BME280;45703;50.898;6.054;2023-02-12T00:23:27;102400.13;;;6.99;100.00
59825;BME280;45703;50.898;6.054;2023-02-12T00:25:53;102399.28;;;6.98;100.00
59825;BME280;45703;50.898;6.054;2023-02-12T00:28:18;102394.97;;;6.97;100.00
59825;BME280;45703;50.898;6.054;2023-02-12T00:30:44;102393.13;;;6.98;100.00
59825;BME280;45703;50.898;6.054;2023-02-12T00:33:09;102397.75;;;6.96;100.00
59825;BME280;45703;50.898;6.054;2023-02-12T00:35:35;102401.38;;;6.95;100.00
59825;BME280;45703;50.898;6.054;2023-02-12T00:38:00;102405.88;;;6.94;100.00
59825;BME280;45703;50.898;6.054;2023-02-12T00:40:25;102414.84;;;6.93;100.00
59825;BME280;45703;50.898;6.054;2023-02-12T00:42:51;102413.00;;;6.94;100.00
59825;BME280;45703;50.898;6.054;2023-02-12T00:45:16;102407.84;;;6.92;100.00
59825;BME280;45703;50.898;6.054;2023-02-12T00:47:41;102413.16;;;6.92;100.00
59825;BME280;45703;50.898;6.054;2023-02-12T00:50:06;102406.19;;;6.91;100.00
59825;BME280;45703;50.898;6.054;2023-02-12T00:52:32;102409.81;;;6.90;100.00
59825;BME280;45703;50.898;6.054;2023-02-12T00:54:57;102410.78;;;6.89;100.00
59825;BME280;45703;50.898;6.054;2023-02-12T00:57:23;102402.81;;;6.89;100.00
59825;BME280;45703;50.898;6.054;2023-02-12T00:59:48;102408.13;;;6.89;100.00
59825;BME280;45703;50.898;6.054;2023-02-12T01:02:14;102408.13;;;6.89;100.00
59825;BME280;45703;50.898;6.054;2023-02-12T01:04:40;102404.63;;;6.89;100.00
59825;BME280;45703;50.898;6.054;2023-02-12T01:07:05;102396.66;;;6.89;100.00
59825;BME280;45703;50.898;6.054;2023-02-12T01:09:31;102401.13;;;6.88;100.00
59825;BME280;45703;50.898;6.054;2023-02-12T01:11:56;102396.66;;;6.89;100.00
59825;BME280;45703;50.898;6.054;2023-02-12T01:14:21;102399.44;;;6.87;100.00
59825;BME280;45703;50.898;6.054;2023-02-12T01:16:47;102399.44;;;6.87;100.00
59825;BME280;45703;50.898;6.054;2023-02-12T01:19:12;102400.44;;;6.86;100.00
59825;BME280;45703;50.898;6.054;2023-02-12T01:21:37;102397.78;;;6.86;100.00
59825;BME280;45703;50.898;6.054;2023-02-12T01:24:03;102393.44;;;6.85;100.00
59825;BME280;45703;50.898;6.054;2023-02-12T01:26:29;102393.44;;;6.85;100.00
59825;BME280;45703;50.898;6.054;2023-02-12T01:28:55;102384.66;;;6.85;100.00
59825;BME280;45703;50.898;6.054;2023-02-12T01:31:25;102391.66;;;6.86;100.00
59825;BME280;45703;50.898;6.054;2023-02-12T01:33:51;102389.13;;;6.84;100.00
59825;BME280;45703;50.898;6.054;2023-02-12T01:36:17;102389.97;;;6.85;100.00
59825;BME280;45703;50.898;6.054;2023-02-12T01:38:43;102391.66;;;6.86;100.00
59825;BME280;45703;50.898;6.054;2023-02-12T01:41:14;102389.13;;;6.84;100.00
59825;BME280;45703;50.898;6.054;2023-02-12T01:43:40;102384.66;;;6.85;100.00
59825;BME280;45703;50.898;6.054;2023-02-12T01:46:06;102384.78;;;6.83;100.00
59825;BME280;45703;50.898;6.054;2023-02-12T01:48:32;102378.50;;;6.84;100.00
59825;BME280;45703;50.898;6.054;2023-02-12T01:50:59;102379.47;;;6.83;100.00
59825;BME280;45703;50.898;6.054;2023-02-12T01:53:28;102380.47;;;6.82;100.00
59825;BME280;45703;50.898;6.054;2023-02-12T01:55:56;102378.78;;;6.81;100.00
59825;BME280;45703;50.898;6.054;2023-02-12T01:58:23;102377.00;;;6.82;100.00
59825;BME280;45703;50.898;6.054;2023-02-12T02:00:49;102376.31;;;6.80;100.00
59825;BME280;45703;50.898;6.054;2023-02-12T02:03:14;102376.44;;;6.78;100.00
59825;BME280;45703;50.898;6.054;2023-02-12T02:05:49;102373.78;;;6.78;100.00
59825;BME280;45703;50.898;6.054;2023-02-12T02:08:16;102370.44;;;6.76;100.00
59825;BME280;45703;50.898;6.054;2023-02-12T02:10:42;102373.09;;;6.76;100.00
59825;BME280;45703;50.898;6.054;2023-02-12T02:13:07;102374.91;;;6.76;100.00
59825;BME280;45703;50.898;6.054;2023-02-12T02:15:53;102372.41;;;6.74;100.00
59825;BME280;45703;50.898;6.054;2023-02-12T02:18:25;102376.72;;;6.75;100.00
59825;BME280;45703;50.898;6.054;2023-02-12T02:26:20;102369.06;;;6.72;100.00
59825;BME280;45703;50.898;6.054;2023-02-12T02:38:54;102375.63;;;6.68;100.00
59825;BME280;45703;50.898;6.054;2023-02-12T02:41:47;102377.31;;;6.69;100.00
59825;BME280;45703;50.898;6.054;2023-02-12T02:44:22;102370.31;;;6.68;100.00
59825;BME280;45703;50.898;6.054;2023-02-12T02:46:51;102371.31;;;6.67;100.00
59825;BME280;45703;50.898;6.054;2023-02-12T02:52:07;102366.00;;;6.67;100.00
59825;BME280;45703;50.898;6.054;2023-02-12T02:54:44;102360.69;;;6.67;100.00
59825;BME280;45703;50.898;6.054;2023-02-12T02:57:17;102366.00;;;6.67;100.00
59825;BME280;45703;50.898;6.054;2023-02-12T02:59:48;102366.97;;;6.66;100.00
59825;BME280;45703;50.898;6.054;2023-02-12T03:02:35;102369.50;;;6.68;100.00
59825;BME280;45703;50.898;6.054;2023-02-12T03:05:07;102360.69;;;6.67;100.00
59825;BME280;45703;50.898;6.054;2023-02-12T03:07:35;102362.34;;;6.68;100.00
59825;BME280;45703;50.898;6.054;2023-02-12T03:10:04;102358.72;;;6.69;100.00
59825;BME280;45703;50.898;6.054;2023-02-12T03:12:42;102357.06;;;6.68;100.00
59825;BME280;45703;50.898;6.054;2023-02-12T03:15:18;102364.03;;;6.69;100.00
59825;BME280;45703;50.898;6.054;2023-02-12T03:17:45;102359.56;;;6.70;100.00
59825;BME280;45703;50.898;6.054;2023-02-12T03:20:21;102356.75;;;6.71;100.00
59825;BME280;45703;50.898;6.054;2023-02-12T03:22:53;102359.41;;;6.71;100.00
59825;BME280;45703;50.898;6.054;2023-02-12T03:25:22;102356.75;;;6.71;100.00
59825;BME280;45703;50.898;6.054;2023-02-12T03:30:34;102361.38;;;6.69;100.00
59825;BME280;45703;50.898;6.054;2023-02-12T03:33:09;102364.03;;;6.69;100.00
59825;BME280;45703;50.898;6.054;2023-02-12T03:35:43;102357.06;;;6.68;100.00
59825;BME280;45703;50.898;6.054;2023-02-12T03:40:45;102356.22;;;6.68;100.00
59825;BME280;45703;50.898;6.054;2023-02-12T03:43:15;102356.22;;;6.68;100.00
59825;BME280;45703;50.898;6.054;2023-02-12T03:53:12;102353.72;;;6.66;100.00
59825;BME280;45703;50.898;6.054;2023-02-12T03:55:39;102354.69;;;6.65;100.00
59825;BME280;45703;50.898;6.054;2023-02-12T03:58:07;102357.34;;;6.65;100.00
59825;BME280;45703;50.898;6.054;2023-02-12T04:00:33;102360.00;;;6.65;100.00
59825;BME280;45703;50.898;6.054;2023-02-12T04:02:58;102357.34;;;6.65;100.00
59825;BME280;45703;50.898;6.054;2023-02-12T04:05:24;102373.28;;;6.65;100.00
59825;BME280;45703;50.898;6.054;2023-02-12T04:07:50;102367.81;;;6.67;100.00
59825;BME280;45703;50.898;6.054;2023-02-12T04:10:16;102371.31;;;6.67;100.00
59825;BME280;45703;50.898;6.054;2023-02-12T04:12:45;102365.19;;;6.67;100.00
59825;BME280;45703;50.898;6.054;2023-02-12T04:18:11;102372.97;;;6.68;100.00
59825;BME280;45703;50.898;6.054;2023-02-12T04:28:35;102373.97;;;6.67;100.00
59825;BME280;45703;50.898;6.054;2023-02-12T04:33:48;102373.97;;;6.67;100.00
59825;BME280;45703;50.898;6.054;2023-02-12T04:36:25;102382.78;;;6.68;100.00
59825;BME280;45703;50.898;6.054;2023-02-12T04:38:54;102382.78;;;6.68;100.00
59825;BME280;45703;50.898;6.054;2023-02-12T04:41:22;102380.13;;;6.68;100.00
59825;BME280;45703;50.898;6.054;2023-02-12T04:43:48;102376.63;;;6.67;100.00
59825;BME280;45703;50.898;6.054;2023-02-12T04:46:13;102386.41;;;6.67;100.00
59825;BME280;45703;50.898;6.054;2023-02-12T04:48:46;102384.75;;;6.66;100.00
59825;BME280;45703;50.898;6.054;2023-02-12T04:51:14;102388.38;;;6.65;100.00
59825;BME280;45703;50.898;6.054;2023-02-12T04:53:39;102388.38;;;6.65;100.00
59825;BME280;45703;50.898;6.054;2023-02-12T04:56:05;102385.72;;;6.65;100.00
59825;BME280;45703;50.898;6.054;2023-02-12T04:58:30;102388.50;;;6.63;100.00
59825;BME280;45703;50.898;6.054;2023-02-12T05:00:57;102386.69;;;6.64;100.00
59825;BME280;45703;50.898;6.054;2023-02-12T05:03:23;102385.84;;;6.63;100.00
59825;BME280;45703;50.898;6.054;2023-02-12T05:05:48;102385.97;;;6.62;100.00
59825;BME280;45703;50.898;6.054;2023-02-12T05:08:14;102377.19;;;6.61;100.00
59825;BME280;45703;50.898;6.054;2023-02-12T05:10:39;102384.31;;;6.61;100.00
59825;BME280;45703;50.898;6.054;2023-02-12T05:13:04;102382.50;;;6.61;100.00
59825;BME280;45703;50.898;6.054;2023-02-12T05:15:30;102384.47;;;6.59;100.00
59825;BME280;45703;50.898;6.054;2023-02-12T05:17:55;102379.16;;;6.59;100.00
59825;BME280;45703;50.898;6.054;2023-02-12T05:20:20;102380.97;;;6.59;100.00
59825;BME280;45703;50.898;6.054;2023-02-12T05:22:49;102382.78;;;6.58;100.00
59825;BME280;45703;50.898;6.054;2023-02-12T05:25:15;102385.44;;;6.58;100.00
59825;BME280;45703;50.898;6.054;2023-02-12T05:27:40;102378.59;;;6.56;100.00
59825;BME280;45703;50.898;6.054;2023-02-12T05:30:05;102386.72;;;6.54;100.00
59825;BME280;45703;50.898;6.054;2023-02-12T05:32:33;102386.72;;;6.54;100.00
59825;BME280;45703;50.898;6.054;2023-02-12T05:34:58;102393.97;;;6.52;100.00
59825;BME280;45703;50.898;6.054;2023-02-12T05:37:24;102392.31;;;6.51;100.00
59825;BME280;45703;50.898;6.054;2023-02-12T05:39:50;102401.25;;;6.50;100.00
59825;BME280;45703;50.898;6.054;2023-02-12T05:42:15;102400.41;;;6.50;100.00
59825;BME280;45703;50.898;6.054;2023-02-12T05:44:40;102408.50;;;6.48;100.00
59825;BME280;45703;50.898;6.054;2023-02-12T05:47:06;102393.56;;;6.47;100.00
59825;BME280;45703;50.898;6.054;2023-02-12T05:49:31;102401.53;;;6.47;100.00
59825;BME280;45703;50.898;6.054;2023-02-12T05:51:56;102400.69;;;6.47;100.00
59825;BME280;45703;50.898;6.054;2023-02-12T05:54:21;102401.53;;;6.47;100.00
59825;BME280;45703;50.898;6.054;2023-02-12T05:56:47;102397.03;;;6.48;100.00
59825;BME280;45703;50.898;6.054;2023-02-12T05:59:14;102403.22;;;6.48;100.00
59825;BME280;45703;50.898;6.054;2023-02-12T06:01:41;102406.84;;;6.47;100.00
59825;BME280;45703;50.898;6.054;2023-02-12T06:04:09;102402.34;;;6.48;100.00
59825;BME280;45703;50.898;6.054;2023-02-12T06:06:35;102402.34;;;6.48;100.00
59825;BME280;45703;50.898;6.054;2023-02-12T06:09:01;102406.84;;;6.47;100.00
59825;BME280;45703;50.898;6.054;2023-02-12T06:11:26;102410.31;;;6.48;100.00
59825;BME280;45703;50.898;6.054;2023-02-12T06:13:52;102409.50;;;6.47;100.00
59825;BME280;45703;50.898;6.054;2023-02-12T06:16:25;102409.63;;;6.46;100.00
59825;BME280;45703;50.898;6.054;2023-02-12T06:18:51;102405.16;;;6.46;100.00
59825;BME280;45703;50.898;6.054;2023-02-12T06:21:18;102407.13;;;6.44;100.00
59825;BME280;45703;50.898;6.054;2023-02-12T06:23:44;102407.13;;;6.44;100.00
59825;BME280;45703;50.898;6.054;2023-02-12T06:26:09;102412.44;;;6.44;100.00
59825;BME280;45703;50.898;6.054;2023-02-12T06:28:34;102412.44;;;6.44;100.00
59825;BME280;45703;50.898;6.054;2023-02-12T06:31:01;102414.94;;;6.46;100.00
59825;BME280;45703;50.898;6.054;2023-02-12T06:33:32;102418.44;;;6.46;100.00
59825;BME280;45703;50.898;6.054;2023-02-12T06:36:01;102416.59;;;6.47;100.00
59825;BME280;45703;50.898;6.054;2023-02-12T06:38:27;102421.09;;;6.46;100.00
59825;BME280;45703;50.898;6.054;2023-02-12T06:41:01;102417.47;;;6.47;100.00
59825;BME280;45703;50.898;6.054;2023-02-12T06:43:37;102417.47;;;6.47;100.00
59825;BME280;45703;50.898;6.054;2023-02-12T06:46:03;102419.13;;;6.48;100.00
59825;BME280;45703;50.898;6.054;2023-02-12T06:48:29;102419.94;;;6.49;100.00
59825;BME280;45703;50.898;6.054;2023-02-12T06:50:54;102420.81;;;6.49;100.00
59825;BME280;45703;50.898;6.054;2023-02-12T06:53:20;102418.16;;;6.49;100.00
59825;BME280;45703;50.898;6.054;2023-02-12T06:55:59;102426.09;;;6.49;100.00
59825;BME280;45703;50.898;6.054;2023-02-12T06:58:59;102427.78;;;6.50;100.00
59825;BME280;45703;50.898;6.054;2023-02-12T07:01:26;102429.59;;;6.50;100.00
59825;BME280;45703;50.898;6.054;2023-02-12T07:03:56;102433.09;;;6.50;100.00
59825;BME280;45703;50.898;6.054;2023-02-12T07:06:22;102426.94;;;6.50;100.00
59825;BME280;45703;50.898;6.054;2023-02-12T07:08:48;102433.09;;;6.50;100.00
59825;BME280;45703;50.898;6.054;2023-02-12T07:11:13;102436.44;;;6.52;100.00
59825;BME280;45703;50.898;6.054;2023-02-12T07:13:39;102444.41;;;6.52;100.00
59825;BME280;45703;50.898;6.054;2023-02-12T07:16:06;102435.59;;;6.52;100.00
59825;BME280;45703;50.898;6.054;2023-02-12T07:18:32;102440.75;;;6.53;100.00
59825;BME280;45703;50.898;6.054;2023-02-12T07:20:57;102445.91;;;6.55;100.00
59825;BME280;45703;50.898;6.054;2023-02-12T07:23:23;102445.09;;;6.54;100.00
59825;BME280;45703;50.898;6.054;2023-02-12T07:25:59;102446.75;;;6.55;100.00
59825;BME280;45703;50.898;6.054;2023-02-12T07:28:25;102443.13;;;6.56;100.00
59825;BME280;45703;50.898;6.054;2023-02-12T07:30:51;102449.25;;;6.57;100.00
59825;BME280;45703;50.898;6.054;2023-02-12T07:33:17;102449.25;;;6.57;100.00
59825;BME280;45703;50.898;6.054;2023-02-12T07:35:42;102465.06;;;6.58;100.00
59825;BME280;45703;50.898;6.054;2023-02-12T07:38:07;102464.91;;;6.60;100.00
59825;BME280;45703;50.898;6.054;2023-02-12T07:40:33;102464.09;;;6.59;100.00
59825;BME280;45703;50.898;6.054;2023-02-12T07:42:58;102463.91;;;6.61;100.00
59825;BME280;45703;50.898;6.054;2023-02-12T07:45:23;102464.78;;;6.61;100.00
59825;BME280;45703;50.898;6.054;2023-02-12T07:47:49;102459.31;;;6.63;100.00
59825;BME280;45703;50.898;6.054;2023-02-12T07:50:14;102465.47;;;6.63;100.00
59825;BME280;45703;50.898;6.054;2023-02-12T07:52:40;102466.16;;;6.65;100.00
59825;BME280;45703;50.898;6.054;2023-02-12T07:55:06;102468.53;;;6.68;100.00
59825;BME280;45703;50.898;6.054;2023-02-12T07:57:36;102473.56;;;6.71;100.00
59825;BME280;45703;50.898;6.054;2023-02-12T08:00:03;102465.47;;;6.73;100.00
59825;BME280;45703;50.898;6.054;2023-02-12T08:02:28;102466.84;;;6.77;100.00
59825;BME280;45703;50.898;6.054;2023-02-12T08:04:57;102461.38;;;6.78;100.00
59825;BME280;45703;50.898;6.054;2023-02-12T08:07:23;102457.63;;;6.81;100.00
59825;BME280;45703;50.898;6.054;2023-02-12T08:09:48;102464.44;;;6.83;100.00
59825;BME280;45703;50.898;6.054;2023-02-12T08:12:14;102472.97;;;6.87;100.00
59825;BME280;45703;50.898;6.054;2023-02-12T08:14:39;102464.84;;;6.88;100.00
59825;BME280;45703;50.898;6.054;2023-02-12T08:17:05;102463.59;;;6.92;100.00
59825;BME280;45703;50.898;6.054;2023-02-12T08:19:32;102464.31;;;6.94;100.00
59825;BME280;45703;50.898;6.054;2023-02-12T08:21:58;102464.84;;;6.98;100.00
59825;BME280;45703;50.898;6.054;2023-02-12T08:24:24;102464.84;;;6.98;100.00
59825;BME280;45703;50.898;6.054;2023-02-12T08:26:50;102472.38;;;7.02;100.00
59825;BME280;45703;50.898;6.054;2023-02-12T08:29:16;102465.09;;;7.04;100.00
59825;BME280;45703;50.898;6.054;2023-02-12T08:31:45;102468.28;;;7.07;100.00
59825;BME280;45703;50.898;6.054;2023-02-12T08:34:17;102471.50;;;7.11;100.00
59825;BME280;45703;50.898;6.054;2023-02-12T08:36:43;102470.38;;;7.13;100.00
59825;BME280;45703;50.898;6.054;2023-02-12T08:39:08;102470.94;;;7.17;100.00
59825;BME280;45703;50.898;6.054;2023-02-12T08:41:34;102467.97;;;7.20;100.00
59825;BME280;45703;50.898;6.054;2023-02-12T08:44:02;102469.66;;;7.21;100.00
59825;BME280;45703;50.898;6.054;2023-02-12T08:46:29;102468.38;;;7.25;100.00
59825;BME280;45703;50.898;6.054;2023-02-12T08:48:58;102468.94;;;7.28;100.00
59825;BME280;45703;50.898;6.054;2023-02-12T08:51:29;102472.28;;;7.30;100.00
59825;BME280;45703;50.898;6.054;2023-02-12T08:53:56;102475.63;;;7.32;100.00
59825;BME280;45703;50.898;6.054;2023-02-12T08:56:22;102486.78;;;7.36;100.00
59825;BME280;45703;50.898;6.054;2023-02-12T08:58:48;102478.53;;;7.39;100.00
59825;BME280;45703;50.898;6.054;2023-02-12T09:01:15;102487.22;;;7.41;100.00
59825;BME280;45703;50.898;6.054;2023-02-12T09:03:41;102487.59;;;7.46;100.00
59825;BME280;45703;50.898;6.054;2023-02-12T09:06:06;102486.47;;;7.48;100.00
59825;BME280;45703;50.898;6.054;2023-02-12T09:08:33;102490.50;;;7.52;100.00
59825;BME280;45703;50.898;6.054;2023-02-12T09:10:58;102486.72;;;7.55;100.00
59825;BME280;45703;50.898;6.054;2023-02-12T09:13:23;102489.22;;;7.56;100.00
59825;BME280;45703;50.898;6.054;2023-02-12T09:15:49;102486.13;;;7.61;100.00
59825;BME280;45703;50.898;6.054;2023-02-12T09:18:16;102488.63;;;7.62;100.00
59825;BME280;45703;50.898;6.054;2023-02-12T09:20:42;102489.19;;;7.66;100.00
59825;BME280;45703;50.898;6.054;2023-02-12T09:23:12;102492.53;;;7.68;100.00
59825;BME280;45703;50.898;6.054;2023-02-12T09:25:39;102483.56;;;7.69;100.00
59825;BME280;45703;50.898;6.054;2023-02-12T09:28:05;102486.59;;;7.74;100.00
59825;BME280;45703;50.898;6.054;2023-02-12T09:30:30;102490.13;;;7.74;100.00
59825;BME280;45703;50.898;6.054;2023-02-12T09:32:55;102484.63;;;7.76;100.00
59825;BME280;45703;50.898;6.054;2023-02-12T09:35:21;102486.88;;;7.80;100.00
59825;BME280;45703;50.898;6.054;2023-02-12T09:37:47;102483.75;;;7.85;100.00
59825;BME280;45703;50.898;6.054;2023-02-12T09:40:16;102487.09;;;7.87;100.00
59825;BME280;45703;50.898;6.054;2023-02-12T09:45:26;102486.22;;;7.96;100.00
59825;BME280;45703;50.898;6.054;2023-02-12T09:48:31;102483.94;;;8.01;100.00
59825;BME280;45703;50.898;6.054;2023-02-12T09:50:52;102486.97;;;8.06;100.00
59825;BME280;45703;50.898;6.054;2023-02-12T09:53:20;102493.00;;;8.08;100.00
59825;BME280;45703;50.898;6.054;2023-02-12T09:55:47;102495.34;;;8.11;100.00
59825;BME280;45703;50.898;6.054;2023-02-12T09:58:55;102494.34;;;8.12;100.00
59825;BME280;45703;50.898;6.054;2023-02-12T10:01:03;102493.19;;;8.14;100.00
59825;BME280;45703;50.898;6.054;2023-02-12T10:03:34;102501.75;;;8.18;100.00
59825;BME280;45703;50.898;6.054;2023-02-12T10:06:04;102499.50;;;8.23;100.00
59825;BME280;45703;50.898;6.054;2023-02-12T10:16:11;102509.47;;;8.38;100.00
59825;BME280;45703;50.898;6.054;2023-02-12T10:22:12;102500.72;;;8.46;100.00
59825;BME280;45703;50.898;6.054;2023-02-12T10:24:18;102496.78;;;8.50;100.00
59825;BME280;45703;50.898;6.054;2023-02-12T10:26:49;102497.13;;;8.55;100.00
59825;BME280;45703;50.898;6.054;2023-02-12T10:29:18;102497.66;;;8.58;100.00
59825;BME280;45703;50.898;6.054;2023-02-12T10:31:46;102492.19;;;8.59;100.00
59825;BME280;45703;50.898;6.054;2023-02-12T10:34:20;102504.19;;;8.63;100.00
59825;BME280;45703;50.898;6.054;2023-02-12T10:36:47;102501.38;;;8.65;100.00
59825;BME280;45703;50.898;6.054;2023-02-12T10:39:24;102505.56;;;8.67;100.00
59825;BME280;45703;50.898;6.054;2023-02-12T10:42:10;102498.94;;;8.71;100.00
59825;BME280;45703;50.898;6.054;2023-02-12T10:44:38;102506.63;;;8.74;100.00
59825;BME280;45703;50.898;6.054;2023-02-12T10:47:03;102510.81;;;8.77;100.00
59825;BME280;45703;50.898;6.054;2023-02-12T10:49:29;102504.63;;;8.76;100.00
59825;BME280;45703;50.898;6.054;2023-02-12T10:51:57;102504.00;;;8.82;100.00
59825;BME280;45703;50.898;6.054;2023-02-12T10:54:32;102498.69;;;8.82;100.00
59825;BME280;45703;50.898;6.054;2023-02-12T10:56:59;102502.88;;;8.85;100.00
59825;BME280;45703;50.898;6.054;2023-02-12T10:59:30;102505.38;;;8.86;100.00
59825;BME280;45703;50.898;6.054;2023-02-12T11:01:55;102505.38;;;8.86;100.00
59825;BME280;45703;50.898;6.054;2023-02-12T11:04:26;102496.38;;;8.87;100.00
59825;BME280;45703;50.898;6.054;2023-02-12T11:06:59;102499.72;;;8.89;100.00
59825;BME280;45703;50.898;6.054;2023-02-12T11:09:44;102493.28;;;8.92;100.00
59825;BME280;45703;50.898;6.054;2023-02-12T11:14:54;102483.97;;;8.96;100.00
59825;BME280;45703;50.898;6.054;2023-02-12T11:17:25;102483.97;;;8.96;100.00
59825;BME280;45703;50.898;6.054;2023-02-12T11:20:14;102479.19;;;8.99;100.00
59825;BME280;45703;50.898;6.054;2023-02-12T11:22:56;102477.69;;;9.05;100.00
59825;BME280;45703;50.898;6.054;2023-02-12T11:25:22;102472.91;;;9.08;100.00
59825;BME280;45703;50.898;6.054;2023-02-12T11:30:25;102464.94;;;9.16;100.00
59825;BME280;45703;50.898;6.054;2023-02-12T11:32:51;102467.16;;;9.21;100.00
59825;BME280;45703;50.898;6.054;2023-02-12T11:35:21;102465.84;;;9.25;100.00
59825;BME280;45703;50.898;6.054;2023-02-12T11:37:55;102458.34;;;9.28;100.00
59825;BME280;45703;50.898;6.054;2023-02-12T11:40:22;102455.22;;;9.33;100.00
59825;BME280;45703;50.898;6.054;2023-02-12T11:42:52;102458.88;;;9.32;100.00
59825;BME280;45703;50.898;6.054;2023-02-12T11:45:19;102449.88;;;9.33;100.00
59825;BME280;45703;50.898;6.054;2023-02-12T11:47:45;102443.38;;;9.35;100.00
59825;BME280;45703;50.898;6.054;2023-02-12T11:50:17;102446.41;;;9.40;100.00
59825;BME280;45703;50.898;6.054;2023-02-12T11:52:47;102440.44;;;9.46;100.00
59825;BME280;45703;50.898;6.054;2023-02-12T11:55:26;102440.81;;;9.51;100.00
59825;BME280;45703;50.898;6.054;2023-02-12T11:57:52;102436.63;;;9.57;100.00
59825;BME280;45703;50.898;6.054;2023-02-12T12:00:20;102435.00;;;9.64;100.00
59825;BME280;45703;50.898;6.054;2023-02-12T12:02:48;102438.53;;;9.72;100.00
59825;BME280;45703;50.898;6.054;2023-02-12T12:05:15;102435.72;;;9.74;100.00
59825;BME280;45703;50.898;6.054;2023-02-12T12:07:44;102432.22;;;9.81;100.00
59825;BME280;45703;50.898;6.054;2023-02-12T12:12:56;102427.88;;;9.88;100.00
59825;BME280;45703;50.898;6.054;2023-02-12T12:15:24;102428.22;;;9.93;100.00
59825;BME280;45703;50.898;6.054;2023-02-12T12:21:17;102423.63;;;10.03;100.00
59825;BME280;45703;50.898;6.054;2023-02-12T12:24:08;102417.13;;;10.05;100.00
59825;BME280;45703;50.898;6.054;2023-02-12T12:26:30;102415.13;;;10.07;100.00
59825;BME280;45703;50.898;6.054;2023-02-12T12:29:19;102404.97;;;10.11;100.00
59825;BME280;45703;50.898;6.054;2023-02-12T12:31:46;102410.97;;;10.13;100.00
59825;BME280;45703;50.898;6.054;2023-02-12T12:34:20;102400.94;;;10.15;100.00
59825;BME280;45703;50.898;6.054;2023-02-12T12:39:14;102400.63;;;10.18;100.00
59825;BME280;45703;50.898;6.054;2023-02-12T12:52:03;102400.78;;;10.08;98.30
59825;BME280;45703;50.898;6.054;2023-02-12T12:57:22;102395.09;;;10.11;100.00
59825;BME280;45703;50.898;6.054;2023-02-12T13:28:06;102361.25;;;10.04;100.00
59825;BME280;45703;50.898;6.054;2023-02-12T13:30:38;102350.91;;;10.01;100.00
59825;BME280;45703;50.898;6.054;2023-02-12T13:35:31;102352.22;;;9.97;100.00
59825;BME280;45703;50.898;6.054;2023-02-12T13:37:59;102351.56;;;9.95;100.00
59825;BME280;45703;50.898;6.054;2023-02-12T13:40:26;102350.19;;;9.91;100.00
59825;BME280;45703;50.898;6.054;2023-02-12T13:45:23;102349.19;;;9.92;100.00
59825;BME280;45703;50.898;6.054;2023-02-12T13:53:00;102342.19;;;9.91;100.00
59825;BME280;45703;50.898;6.054;2023-02-12T14:03:22;102332.69;;;9.97;100.00
59825;BME280;45703;50.898;6.054;2023-02-12T14:05:47;102327.34;;;9.97;100.00
59825;BME280;45703;50.898;6.054;2023-02-12T14:08:25;102328.88;;;9.99;100.00
59825;BME280;45703;50.898;6.054;2023-02-12T14:11:02;102331.53;;;9.99;100.00
59825;BME280;45703;50.898;6.054;2023-02-12T14:13:28;102327.88;;;10.00;100.00
59825;BME280;45703;50.898;6.054;2023-02-12T14:15:58;102334.19;;;9.99;100.00
59825;BME280;45703;50.898;6.054;2023-02-12T14:18:41;102335.19;;;9.98;100.00
59825;BME280;45703;50.898;6.054;2023-02-12T14:23:35;102332.16;;;9.93;100.00
59825;BME280;45703;50.898;6.054;2023-02-12T14:26:02;102331.16;;;9.86;100.00
59825;BME280;45703;50.898;6.054;2023-02-12T14:28:39;102325.03;;;9.86;100.00
59825;BME280;45703;50.898;6.054;2023-02-12T14:33:50;102331.16;;;9.86;100.00
59825;BME280;45703;50.898;6.054;2023-02-12T14:41:27;102339.03;;;9.80;100.00
59825;BME280;45703;50.898;6.054;2023-02-12T14:46:46;102341.19;;;9.76;100.00
59825;BME280;45703;50.898;6.054;2023-02-12T14:49:19;102332.84;;;9.71;100.00
59825;BME280;45703;50.898;6.054;2023-02-12T14:52:01;102333.69;;;9.72;99.94
59825;BME280;45703;50.898;6.054;2023-02-12T14:54:33;102327.16;;;9.66;100.00
59825;BME280;45703;50.898;6.054;2023-02-12T14:57:03;102331.16;;;9.62;100.00
59825;BME280;45703;50.898;6.054;2023-02-12T14:59:31;102325.97;;;9.61;100.00
59825;BME280;45703;50.898;6.054;2023-02-12T15:01:58;102332.50;;;9.58;100.00
59825;BME280;45703;50.898;6.054;2023-02-12T15:04:26;102330.81;;;9.57;100.00
59825;BME280;45703;50.898;6.054;2023-02-12T15:07:02;102338.16;;;9.55;100.00
59825;BME280;45703;50.898;6.054;2023-02-12T15:09:33;102331.97;;;9.55;100.00
59825;BME280;45703;50.898;6.054;2023-02-12T15:12:05;102327.81;;;9.52;100.00
59825;BME280;45703;50.898;6.054;2023-02-12T15:14:35;102326.47;;;9.48;100.00
59825;BME280;45703;50.898;6.054;2023-02-12T15:17:07;102325.94;;;9.45;100.00
59825;BME280;45703;50.898;6.054;2023-02-12T15:19:48;102336.09;;;9.41;100.00
59825;BME280;45703;50.898;6.054;2023-02-12T15:22:33;102329.09;;;9.40;100.00